Amistad, New Mexico
Current Conditions -  °F | °C
As of 10:53 AM on Wednesday 28 Jan 2015 (Local Time) from KDHT Reporting Station
Clear Clear  
Wind Chill: 19°   Ceiling: Unl
Heat Index: 19°   Visibility: 10mi
Dew Point:   Wind: 7mph
Humidity: 28%   Direction: 340°NNW
Pressure: 30.06"   Gusts: NA
Location:  35.92°N, 103.16°W
Report Text: KDHT 281753Z AUTO 34006KT 10SM CLR 19/00 A3006 RMK AO2 SLP156 T01890000 10189 20028 50003
Loading
Personal Weather Stations






























Interactive Weather Map New forecast layout! Learn more

10-Day Weather Forecast

Advertisements
Track Severe Weather on mobile